sensor_id;sensor_type;location;lat;lon;timestamp;pressure;altitude;pressure_sealevel;temperature;humidity
28312;BME280;15572;48.810;9.148;2023-07-31T00:01:37;98160.63;;;16.13;95.50
28312;BME280;15572;48.810;9.148;2023-07-31T00:06:33;98157.66;;;16.15;95.63
28312;BME280;15572;48.810;9.148;2023-07-31T00:11:30;98154.34;;;16.13;96.09
28312;BME280;15572;48.810;9.148;2023-07-31T00:16:27;98151.47;;;16.08;95.47
28312;BME280;15572;48.810;9.148;2023-07-31T00:21:24;98154.88;;;16.03;95.77
28312;BME280;15572;48.810;9.148;2023-07-31T00:26:20;98152.84;;;15.98;96.16
28312;BME280;15572;48.810;9.148;2023-07-31T00:31:17;98155.56;;;15.98;96.69
28312;BME280;15572;48.810;9.148;2023-07-31T00:36:15;98142.84;;;15.92;97.07
28312;BME280;15572;48.810;9.148;2023-07-31T00:41:13;98144.03;;;15.85;97.66
28312;BME280;15572;48.810;9.148;2023-07-31T00:46:09;98151.09;;;15.74;98.82
28312;BME280;15572;48.810;9.148;2023-07-31T00:51:06;98154.13;;;15.66;99.01
28312;BME280;15572;48.810;9.148;2023-07-31T00:56:05;98153.63;;;15.57;100.00
28312;BME280;15572;48.810;9.148;2023-07-31T01:01:02;98149.25;;;15.50;100.00
28312;BME280;15572;48.810;9.148;2023-07-31T01:06:09;98146.84;;;15.42;100.00
28312;BME280;15572;48.810;9.148;2023-07-31T01:11:15;98142.78;;;15.33;100.00
28312;BME280;15572;48.810;9.148;2023-07-31T01:16:12;98136.72;;;15.31;100.00
28312;BME280;15572;48.810;9.148;2023-07-31T01:21:21;98148.88;;;15.28;100.00
28312;BME280;15572;48.810;9.148;2023-07-31T01:26:22;98133.31;;;15.17;100.00
28312;BME280;15572;48.810;9.148;2023-07-31T01:31:23;98126.19;;;15.16;100.00
28312;BME280;15572;48.810;9.148;2023-07-31T01:36:20;98119.06;;;15.15;100.00
28312;BME280;15572;48.810;9.148;2023-07-31T01:41:17;98112.78;;;15.14;100.00
28312;BME280;15572;48.810;9.148;2023-07-31T01:46:14;98105.44;;;15.15;100.00
28312;BME280;15572;48.810;9.148;2023-07-31T01:51:11;98105.81;;;15.18;100.00
28312;BME280;15572;48.810;9.148;2023-07-31T01:56:07;98102.03;;;15.20;100.00
28312;BME280;15572;48.810;9.148;2023-07-31T02:01:04;98091.72;;;15.22;100.00
28312;BME280;15572;48.810;9.148;2023-07-31T02:06:02;98095.28;;;15.22;100.00
28312;BME280;15572;48.810;9.148;2023-07-31T02:10:58;98081.19;;;15.25;100.00
28312;BME280;15572;48.810;9.148;2023-07-31T02:15:55;98082.84;;;15.26;100.00
28312;BME280;15572;48.810;9.148;2023-07-31T02:20:52;98067.69;;;15.30;100.00
28312;BME280;15572;48.810;9.148;2023-07-31T02:25:50;98062.47;;;15.29;100.00
28312;BME280;15572;48.810;9.148;2023-07-31T02:30:46;98060.81;;;15.28;100.00
28312;BME280;15572;48.810;9.148;2023-07-31T02:35:43;98057.69;;;15.24;100.00
28312;BME280;15572;48.810;9.148;2023-07-31T02:40:39;98056.72;;;15.18;100.00
28312;BME280;15572;48.810;9.148;2023-07-31T02:45:37;98052.19;;;15.12;100.00
28312;BME280;15572;48.810;9.148;2023-07-31T02:50:34;98055.59;;;15.08;100.00
28312;BME280;15572;48.810;9.148;2023-07-31T02:55:30;98050.16;;;15.08;100.00
28312;BME280;15572;48.810;9.148;2023-07-31T03:00:27;98035.09;;;15.05;100.00
28312;BME280;15572;48.810;9.148;2023-07-31T03:05:25;98035.31;;;15.04;100.00
28312;BME280;15572;48.810;9.148;2023-07-31T03:10:21;98040.63;;;14.99;100.00
28312;BME280;15572;48.810;9.148;2023-07-31T03:15:18;98047.97;;;14.98;100.00
28312;BME280;15572;48.810;9.148;2023-07-31T03:20:15;98049.56;;;15.06;100.00
28312;BME280;15572;48.810;9.148;2023-07-31T03:25:13;98034.31;;;15.16;100.00
28312;BME280;15572;48.810;9.148;2023-07-31T03:30:10;98052.25;;;15.24;100.00
28312;BME280;15572;48.810;9.148;2023-07-31T03:35:07;98044.00;;;15.31;100.00
28312;BME280;15572;48.810;9.148;2023-07-31T03:40:04;98047.34;;;15.33;100.00
28312;BME280;15572;48.810;9.148;2023-07-31T03:45:03;98045.09;;;15.41;99.88
28312;BME280;15572;48.810;9.148;2023-07-31T03:49:59;98048.59;;;15.48;99.22
28312;BME280;15572;48.810;9.148;2023-07-31T03:54:56;98053.41;;;15.65;96.28
28312;BME280;15572;48.810;9.148;2023-07-31T03:59:52;98049.69;;;15.89;92.93
28312;BME280;15572;48.810;9.148;2023-07-31T04:04:50;98053.72;;;15.98;92.40
28312;BME280;15572;48.810;9.148;2023-07-31T04:09:47;98044.03;;;16.02;91.93
28312;BME280;15572;48.810;9.148;2023-07-31T04:14:43;98048.78;;;16.07;92.39
28312;BME280;15572;48.810;9.148;2023-07-31T04:19:40;98043.06;;;16.08;92.09
28312;BME280;15572;48.810;9.148;2023-07-31T04:24:37;98040.94;;;16.10;92.04
28312;BME280;15572;48.810;9.148;2023-07-31T04:29:34;98033.94;;;16.14;92.08
28312;BME280;15572;48.810;9.148;2023-07-31T04:34:30;98037.25;;;16.16;91.96
28312;BME280;15572;48.810;9.148;2023-07-31T04:39:27;98032.16;;;16.20;92.33
28312;BME280;15572;48.810;9.148;2023-07-31T04:44:25;98045.34;;;16.23;92.05
28312;BME280;15572;48.810;9.148;2023-07-31T04:49:21;98040.84;;;16.28;92.03
28312;BME280;15572;48.810;9.148;2023-07-31T04:54:18;98036.09;;;16.35;92.72
28312;BME280;15572;48.810;9.148;2023-07-31T04:59:14;98041.66;;;16.40;92.55
28312;BME280;15572;48.810;9.148;2023-07-31T05:04:14;98038.09;;;16.40;92.93
28312;BME280;15572;48.810;9.148;2023-07-31T05:09:10;98034.78;;;16.38;93.33
28312;BME280;15572;48.810;9.148;2023-07-31T05:14:07;98034.78;;;16.38;93.51
28312;BME280;15572;48.810;9.148;2023-07-31T05:19:03;98022.31;;;16.42;93.88
28312;BME280;15572;48.810;9.148;2023-07-31T05:24:01;98030.28;;;16.43;93.98
28312;BME280;15572;48.810;9.148;2023-07-31T05:28:58;98035.75;;;16.43;93.62
28312;BME280;15572;48.810;9.148;2023-07-31T05:33:54;98031.69;;;16.58;92.55
28312;BME280;15572;48.810;9.148;2023-07-31T05:38:51;98039.09;;;16.69;91.72
28312;BME280;15572;48.810;9.148;2023-07-31T05:43:48;98032.91;;;16.73;91.21
28312;BME280;15572;48.810;9.148;2023-07-31T05:48:46;98025.41;;;16.80;91.18
28312;BME280;15572;48.810;9.148;2023-07-31T05:53:43;98024.56;;;16.92;90.26
28312;BME280;15572;48.810;9.148;2023-07-31T05:58:39;98019.44;;;16.95;88.26
28312;BME280;15572;48.810;9.148;2023-07-31T06:03:37;98023.81;;;17.08;88.48
28312;BME280;15572;48.810;9.148;2023-07-31T06:08:33;98024.13;;;17.23;85.85
28312;BME280;15572;48.810;9.148;2023-07-31T06:13:30;98031.16;;;17.47;84.63
28312;BME280;15572;48.810;9.148;2023-07-31T06:18:26;98024.72;;;17.82;81.44
28312;BME280;15572;48.810;9.148;2023-07-31T06:23:24;98021.47;;;18.01;80.46
28312;BME280;15572;48.810;9.148;2023-07-31T06:28:20;98020.75;;;18.23;78.26
28312;BME280;15572;48.810;9.148;2023-07-31T06:33:17;98029.19;;;18.38;76.98
28312;BME280;15572;48.810;9.148;2023-07-31T06:38:14;98031.38;;;18.52;76.08
28312;BME280;15572;48.810;9.148;2023-07-31T06:43:11;98032.94;;;18.48;75.63
28312;BME280;15572;48.810;9.148;2023-07-31T06:48:08;98029.47;;;18.53;75.04
28312;BME280;15572;48.810;9.148;2023-07-31T06:53:04;98030.13;;;18.60;74.38
28312;BME280;15572;48.810;9.148;2023-07-31T06:58:01;98042.06;;;18.71;73.77
28312;BME280;15572;48.810;9.148;2023-07-31T07:02:59;98038.97;;;18.84;72.65
28312;BME280;15572;48.810;9.148;2023-07-31T07:07:56;98039.47;;;18.81;73.90
28312;BME280;15572;48.810;9.148;2023-07-31T07:12:53;98034.00;;;19.03;73.29
28312;BME280;15572;48.810;9.148;2023-07-31T07:17:50;98033.94;;;19.19;71.99
28312;BME280;15572;48.810;9.148;2023-07-31T07:22:48;98026.41;;;19.31;71.51
28312;BME280;15572;48.810;9.148;2023-07-31T07:27:44;98013.06;;;19.40;70.52
28312;BME280;15572;48.810;9.148;2023-07-31T07:32:41;98017.16;;;19.38;70.51
28312;BME280;15572;48.810;9.148;2023-07-31T07:37:37;98020.75;;;19.38;71.29
28312;BME280;15572;48.810;9.148;2023-07-31T07:42:35;98004.56;;;19.42;71.40
28312;BME280;15572;48.810;9.148;2023-07-31T07:47:31;98018.00;;;19.60;70.68
28312;BME280;15572;48.810;9.148;2023-07-31T07:52:28;98003.28;;;19.71;70.19
28312;BME280;15572;48.810;9.148;2023-07-31T07:57:24;98012.59;;;19.70;68.00
28312;BME280;15572;48.810;9.148;2023-07-31T08:02:22;98005.31;;;19.81;66.89
28312;BME280;15572;48.810;9.148;2023-07-31T08:07:19;98008.13;;;19.91;67.35
28312;BME280;15572;48.810;9.148;2023-07-31T08:12:15;97989.78;;;19.96;66.96
28312;BME280;15572;48.810;9.148;2023-07-31T08:17:12;98000.78;;;19.96;66.11
28312;BME280;15572;48.810;9.148;2023-07-31T08:22:32;97994.69;;;19.94;65.65
28312;BME280;15572;48.810;9.148;2023-07-31T08:27:44;97995.47;;;20.22;64.28
28312;BME280;15572;48.810;9.148;2023-07-31T08:32:42;97983.88;;;20.46;63.42
28312;BME280;15572;48.810;9.148;2023-07-31T08:37:40;97984.25;;;20.60;62.29
28312;BME280;15572;48.810;9.148;2023-07-31T08:42:43;97981.34;;;20.82;62.89
28312;BME280;15572;48.810;9.148;2023-07-31T08:47:44;97975.03;;;20.39;61.53
28312;BME280;15572;48.810;9.148;2023-07-31T08:52:42;97974.81;;;20.46;63.60
28312;BME280;15572;48.810;9.148;2023-07-31T08:57:40;97982.69;;;20.79;63.62
28312;BME280;15572;48.810;9.148;2023-07-31T09:02:42;97983.94;;;21.04;62.55
28312;BME280;15572;48.810;9.148;2023-07-31T09:07:40;97965.16;;;20.90;60.68
28312;BME280;15572;48.810;9.148;2023-07-31T09:12:42;97959.38;;;20.92;60.29
28312;BME280;15572;48.810;9.148;2023-07-31T09:17:40;97961.44;;;21.17;62.00
28312;BME280;15572;48.810;9.148;2023-07-31T09:22:36;97974.22;;;20.91;63.17
28312;BME280;15572;48.810;9.148;2023-07-31T09:27:46;97961.59;;;21.00;61.70
28312;BME280;15572;48.810;9.148;2023-07-31T09:32:43;97961.88;;;20.93;62.72
28312;BME280;15572;48.810;9.148;2023-07-31T09:37:40;97953.59;;;20.88;63.60
28312;BME280;15572;48.810;9.148;2023-07-31T09:42:36;97938.19;;;20.92;63.58
28312;BME280;15572;48.810;9.148;2023-07-31T09:47:34;97929.56;;;21.26;63.60
28312;BME280;15572;48.810;9.148;2023-07-31T09:52:31;97915.81;;;21.51;61.65
28312;BME280;15572;48.810;9.148;2023-07-31T09:57:27;97903.47;;;21.79;58.19
28312;BME280;15572;48.810;9.148;2023-07-31T10:02:24;97907.56;;;21.56;58.09
28312;BME280;15572;48.810;9.148;2023-07-31T10:07:25;97902.03;;;21.21;60.10
28312;BME280;15572;48.810;9.148;2023-07-31T10:12:25;97899.53;;;21.29;60.66
28312;BME280;15572;48.810;9.148;2023-07-31T10:17:24;97885.16;;;21.12;58.82
28312;BME280;15572;48.810;9.148;2023-07-31T10:22:22;97888.44;;;21.04;59.66
28312;BME280;15572;48.810;9.148;2023-07-31T10:27:19;97880.53;;;21.28;60.51
28312;BME280;15572;48.810;9.148;2023-07-31T10:32:16;97880.03;;;21.46;59.44
28312;BME280;15572;48.810;9.148;2023-07-31T10:37:20;97857.19;;;21.56;59.56
28312;BME280;15572;48.810;9.148;2023-07-31T10:42:18;97870.94;;;21.71;55.84
28312;BME280;15572;48.810;9.148;2023-07-31T10:47:14;97870.66;;;21.93;57.60
28312;BME280;15572;48.810;9.148;2023-07-31T10:52:13;97869.56;;;22.09;54.67
28312;BME280;15572;48.810;9.148;2023-07-31T10:57:20;97869.28;;;22.15;54.52
28312;BME280;15572;48.810;9.148;2023-07-31T11:02:24;97858.28;;;22.05;55.16
28312;BME280;15572;48.810;9.148;2023-07-31T11:07:22;97846.41;;;22.10;55.88
28312;BME280;15572;48.810;9.148;2023-07-31T11:12:19;97840.91;;;22.15;55.52
28312;BME280;15572;48.810;9.148;2023-07-31T11:17:17;97847.44;;;22.39;54.74
28312;BME280;15572;48.810;9.148;2023-07-31T11:22:13;97850.56;;;22.87;54.52
28312;BME280;15572;48.810;9.148;2023-07-31T11:27:10;97842.56;;;22.90;54.26
28312;BME280;15572;48.810;9.148;2023-07-31T11:32:16;97845.03;;;22.92;52.56
28312;BME280;15572;48.810;9.148;2023-07-31T11:37:13;97841.84;;;22.64;54.54
28312;BME280;15572;48.810;9.148;2023-07-31T11:42:09;97838.06;;;22.40;56.13
28312;BME280;15572;48.810;9.148;2023-07-31T11:47:07;97833.66;;;22.34;55.88
28312;BME280;15572;48.810;9.148;2023-07-31T11:52:04;97821.72;;;22.59;56.31
28312;BME280;15572;48.810;9.148;2023-07-31T11:57:01;97824.16;;;22.65;55.83
28312;BME280;15572;48.810;9.148;2023-07-31T12:01:58;97812.28;;;22.80;56.17
28312;BME280;15572;48.810;9.148;2023-07-31T12:06:56;97801.78;;;22.77;55.26
28312;BME280;15572;48.810;9.148;2023-07-31T12:11:53;97805.97;;;22.70;54.93
28312;BME280;15572;48.810;9.148;2023-07-31T12:16:53;97787.56;;;22.45;57.12
28312;BME280;15572;48.810;9.148;2023-07-31T12:21:50;97793.59;;;22.57;59.13
28312;BME280;15572;48.810;9.148;2023-07-31T12:26:48;97783.06;;;22.74;57.00
28312;BME280;15572;48.810;9.148;2023-07-31T12:31:45;97777.69;;;22.93;56.18
28312;BME280;15572;48.810;9.148;2023-07-31T12:36:42;97773.50;;;23.00;55.81
28312;BME280;15572;48.810;9.148;2023-07-31T12:41:38;97765.94;;;22.77;55.72
28312;BME280;15572;48.810;9.148;2023-07-31T12:46:36;97760.75;;;22.60;55.04
28312;BME280;15572;48.810;9.148;2023-07-31T12:51:33;97762.47;;;22.51;56.13
28312;BME280;15572;48.810;9.148;2023-07-31T12:56:29;97751.53;;;22.31;55.00
28312;BME280;15572;48.810;9.148;2023-07-31T13:01:26;97743.28;;;22.26;54.37
28312;BME280;15572;48.810;9.148;2023-07-31T13:06:24;97738.13;;;22.09;55.21
28312;BME280;15572;48.810;9.148;2023-07-31T13:11:21;97733.38;;;22.20;55.87
28312;BME280;15572;48.810;9.148;2023-07-31T13:16:17;97732.59;;;22.09;57.05
28312;BME280;15572;48.810;9.148;2023-07-31T13:21:14;97726.50;;;22.17;58.08
28312;BME280;15572;48.810;9.148;2023-07-31T13:26:12;97717.03;;;22.34;54.89
28312;BME280;15572;48.810;9.148;2023-07-31T13:31:08;97708.38;;;22.55;55.59
28312;BME280;15572;48.810;9.148;2023-07-31T13:36:06;97709.13;;;23.10;53.91
28312;BME280;15572;48.810;9.148;2023-07-31T13:41:03;97706.94;;;23.93;50.17
28312;BME280;15572;48.810;9.148;2023-07-31T13:46:02;97703.75;;;23.58;51.53
28312;BME280;15572;48.810;9.148;2023-07-31T13:51:01;97704.84;;;23.28;52.90
28312;BME280;15572;48.810;9.148;2023-07-31T13:55:58;97688.47;;;23.36;52.33
28312;BME280;15572;48.810;9.148;2023-07-31T14:00:54;97691.09;;;23.23;52.64
28312;BME280;15572;48.810;9.148;2023-07-31T14:05:52;97679.88;;;23.09;52.39
28312;BME280;15572;48.810;9.148;2023-07-31T14:10:50;97684.34;;;23.05;53.69
28312;BME280;15572;48.810;9.148;2023-07-31T14:15:47;97676.56;;;23.12;52.94
28312;BME280;15572;48.810;9.148;2023-07-31T14:20:43;97673.50;;;23.42;52.99
28312;BME280;15572;48.810;9.148;2023-07-31T14:25:41;97670.31;;;23.83;51.86
28312;BME280;15572;48.810;9.148;2023-07-31T14:30:38;97656.00;;;24.00;52.18
28312;BME280;15572;48.810;9.148;2023-07-31T14:35:34;97659.09;;;23.98;50.77
28312;BME280;15572;48.810;9.148;2023-07-31T14:40:31;97650.47;;;23.81;52.17
28312;BME280;15572;48.810;9.148;2023-07-31T14:45:29;97638.38;;;23.96;53.95
28312;BME280;15572;48.810;9.148;2023-07-31T14:50:26;97645.09;;;23.89;53.60
28312;BME280;15572;48.810;9.148;2023-07-31T14:55:22;97644.56;;;23.87;53.34
28312;BME280;15572;48.810;9.148;2023-07-31T15:00:19;97646.59;;;23.82;53.20
28312;BME280;15572;48.810;9.148;2023-07-31T15:05:17;97642.75;;;23.78;53.14
28312;BME280;15572;48.810;9.148;2023-07-31T15:10:13;97618.50;;;23.93;52.21
28312;BME280;15572;48.810;9.148;2023-07-31T15:15:10;97633.25;;;23.65;52.49
28312;BME280;15572;48.810;9.148;2023-07-31T15:20:07;97619.22;;;23.57;53.18
28312;BME280;15572;48.810;9.148;2023-07-31T15:25:07;97614.19;;;23.87;52.28
28312;BME280;15572;48.810;9.148;2023-07-31T15:30:04;97600.44;;;23.82;50.79
28312;BME280;15572;48.810;9.148;2023-07-31T15:35:01;97591.38;;;23.77;50.26
28312;BME280;15572;48.810;9.148;2023-07-31T15:39:57;97587.31;;;23.69;50.45
28312;BME280;15572;48.810;9.148;2023-07-31T15:44:55;97572.00;;;23.58;50.59
28312;BME280;15572;48.810;9.148;2023-07-31T15:49:51;97552.81;;;23.67;50.19
28312;BME280;15572;48.810;9.148;2023-07-31T15:54:48;97556.31;;;23.72;50.74
28312;BME280;15572;48.810;9.148;2023-07-31T15:59:44;97532.81;;;23.75;52.26
28312;BME280;15572;48.810;9.148;2023-07-31T16:04:42;97543.88;;;23.93;53.30
28312;BME280;15572;48.810;9.148;2023-07-31T16:09:39;97556.38;;;23.91;52.41
28312;BME280;15572;48.810;9.148;2023-07-31T16:14:36;97558.38;;;23.85;52.76
28312;BME280;15572;48.810;9.148;2023-07-31T16:19:32;97552.16;;;23.75;53.01
28312;BME280;15572;48.810;9.148;2023-07-31T16:24:30;97541.94;;;23.75;53.12
28312;BME280;15572;48.810;9.148;2023-07-31T16:29:27;97542.88;;;23.42;53.81
28312;BME280;15572;48.810;9.148;2023-07-31T16:34:23;97549.63;;;23.31;55.21
28312;BME280;15572;48.810;9.148;2023-07-31T16:39:21;97565.97;;;23.27;54.19
28312;BME280;15572;48.810;9.148;2023-07-31T16:44:19;97555.38;;;23.11;56.87
28312;BME280;15572;48.810;9.148;2023-07-31T16:49:16;97560.78;;;22.97;56.77
28312;BME280;15572;48.810;9.148;2023-07-31T16:54:13;97556.53;;;22.81;57.05
28312;BME280;15572;48.810;9.148;2023-07-31T16:59:10;97552.22;;;22.64;56.44
28312;BME280;15572;48.810;9.148;2023-07-31T17:04:07;97560.28;;;22.56;57.80
28312;BME280;15572;48.810;9.148;2023-07-31T17:09:04;97544.66;;;22.46;58.72
28312;BME280;15572;48.810;9.148;2023-07-31T17:14:01;97534.50;;;22.42;58.26
28312;BME280;15572;48.810;9.148;2023-07-31T17:18:58;97526.81;;;22.34;59.47
28312;BME280;15572;48.810;9.148;2023-07-31T17:23:56;97517.81;;;22.23;59.87
28312;BME280;15572;48.810;9.148;2023-07-31T17:28:52;97536.03;;;22.19;60.36
28312;BME280;15572;48.810;9.148;2023-07-31T17:33:49;97533.03;;;22.15;60.64
28312;BME280;15572;48.810;9.148;2023-07-31T17:38:45;97518.44;;;22.15;60.33
28312;BME280;15572;48.810;9.148;2023-07-31T17:43:43;97516.22;;;22.12;60.75
28312;BME280;15572;48.810;9.148;2023-07-31T17:48:40;97515.16;;;22.08;61.24
28312;BME280;15572;48.810;9.148;2023-07-31T17:53:38;97500.88;;;22.06;61.36
28312;BME280;15572;48.810;9.148;2023-07-31T17:58:35;97513.56;;;22.02;62.20
28312;BME280;15572;48.810;9.148;2023-07-31T18:03:32;97515.25;;;21.98;62.84
28312;BME280;15572;48.810;9.148;2023-07-31T18:08:29;97512.50;;;21.93;62.98
28312;BME280;15572;48.810;9.148;2023-07-31T18:13:25;97517.75;;;21.89;63.35
28312;BME280;15572;48.810;9.148;2023-07-31T18:18:22;97500.44;;;21.83;64.27
28312;BME280;15572;48.810;9.148;2023-07-31T18:23:20;97481.19;;;21.78;65.92
28312;BME280;15572;48.810;9.148;2023-07-31T18:28:16;97480.09;;;21.74;66.86
28312;BME280;15572;48.810;9.148;2023-07-31T18:33:13;97489.53;;;21.68;68.10
28312;BME280;15572;48.810;9.148;2023-07-31T18:38:09;97482.41;;;21.57;70.05
28312;BME280;15572;48.810;9.148;2023-07-31T18:43:07;97488.28;;;21.40;73.42
28312;BME280;15572;48.810;9.148;2023-07-31T18:48:04;97486.75;;;21.14;78.78
28312;BME280;15572;48.810;9.148;2023-07-31T18:53:00;97473.31;;;20.92;84.02
28312;BME280;15572;48.810;9.148;2023-07-31T18:57:57;97499.22;;;20.66;95.41
28312;BME280;15572;48.810;9.148;2023-07-31T19:02:54;97504.16;;;20.03;100.00
28312;BME280;15572;48.810;9.148;2023-07-31T19:07:51;97510.59;;;19.42;100.00
28312;BME280;15572;48.810;9.148;2023-07-31T19:12:47;97503.34;;;19.15;100.00
28312;BME280;15572;48.810;9.148;2023-07-31T19:17:44;97506.03;;;19.05;100.00
28312;BME280;15572;48.810;9.148;2023-07-31T19:22:43;97504.06;;;18.90;100.00
28312;BME280;15572;48.810;9.148;2023-07-31T19:27:39;97498.81;;;18.84;100.00
28312;BME280;15572;48.810;9.148;2023-07-31T19:32:36;97516.00;;;18.69;100.00
28312;BME280;15572;48.810;9.148;2023-07-31T19:37:32;97520.06;;;18.62;100.00
28312;BME280;15572;48.810;9.148;2023-07-31T19:42:30;97519.66;;;18.48;100.00
28312;BME280;15572;48.810;9.148;2023-07-31T19:47:27;97510.88;;;18.46;100.00
28312;BME280;15572;48.810;9.148;2023-07-31T19:52:24;97505.81;;;18.33;100.00
28312;BME280;15572;48.810;9.148;2023-07-31T19:57:21;97499.97;;;18.19;100.00
28312;BME280;15572;48.810;9.148;2023-07-31T20:02:19;97491.09;;;18.07;100.00
28312;BME280;15572;48.810;9.148;2023-07-31T20:07:15;97481.22;;;18.06;100.00
28312;BME280;15572;48.810;9.148;2023-07-31T20:12:11;97487.19;;;17.98;100.00
28312;BME280;15572;48.810;9.148;2023-07-31T20:17:08;97469.06;;;17.92;100.00
28312;BME280;15572;48.810;9.148;2023-07-31T20:22:06;97472.88;;;17.91;100.00
28312;BME280;15572;48.810;9.148;2023-07-31T20:27:03;97454.34;;;17.98;100.00
28312;BME280;15572;48.810;9.148;2023-07-31T20:31:59;97448.88;;;17.98;100.00
28312;BME280;15572;48.810;9.148;2023-07-31T20:36:56;97444.47;;;17.97;100.00
28312;BME280;15572;48.810;9.148;2023-07-31T20:41:54;97442.53;;;17.92;100.00
28312;BME280;15572;48.810;9.148;2023-07-31T20:46:50;97427.44;;;17.90;100.00
28312;BME280;15572;48.810;9.148;2023-07-31T20:51:47;97421.44;;;17.93;100.00
28312;BME280;15572;48.810;9.148;2023-07-31T20:56:43;97417.09;;;17.97;100.00
28312;BME280;15572;48.810;9.148;2023-07-31T21:01:41;97415.75;;;17.99;100.00
28312;BME280;15572;48.810;9.148;2023-07-31T21:06:38;97417.88;;;17.92;100.00
28312;BME280;15572;48.810;9.148;2023-07-31T21:11:34;97404.41;;;17.86;100.00
28312;BME280;15572;48.810;9.148;2023-07-31T21:16:32;97380.63;;;17.91;100.00
28312;BME280;15572;48.810;9.148;2023-07-31T21:21:30;97367.81;;;17.97;100.00
28312;BME280;15572;48.810;9.148;2023-07-31T21:26:26;97356.34;;;18.00;100.00
28312;BME280;15572;48.810;9.148;2023-07-31T21:31:23;97342.66;;;18.00;100.00
28312;BME280;15572;48.810;9.148;2023-07-31T21:36:19;97328.09;;;17.94;100.00
28312;BME280;15572;48.810;9.148;2023-07-31T21:41:17;97328.13;;;17.99;100.00
28312;BME280;15572;48.810;9.148;2023-07-31T21:46:14;97310.88;;;17.99;100.00
28312;BME280;15572;48.810;9.148;2023-07-31T21:51:13;97308.94;;;17.94;100.00
28312;BME280;15572;48.810;9.148;2023-07-31T21:56:10;97292.75;;;17.88;100.00
28312;BME280;15572;48.810;9.148;2023-07-31T22:01:07;97280.69;;;17.84;100.00
28312;BME280;15572;48.810;9.148;2023-07-31T22:06:04;97264.25;;;17.84;100.00
28312;BME280;15572;48.810;9.148;2023-07-31T22:11:00;97254.66;;;17.86;100.00
28312;BME280;15572;48.810;9.148;2023-07-31T22:15:57;97239.63;;;17.84;100.00
28312;BME280;15572;48.810;9.148;2023-07-31T22:20:55;97230.84;;;17.82;100.00
28312;BME280;15572;48.810;9.148;2023-07-31T22:25:51;97220.44;;;17.79;100.00
28312;BME280;15572;48.810;9.148;2023-07-31T22:30:47;97219.88;;;17.82;100.00
28312;BME280;15572;48.810;9.148;2023-07-31T22:35:44;97214.41;;;17.82;100.00
28312;BME280;15572;48.810;9.148;2023-07-31T22:40:42;97204.84;;;17.84;100.00
28312;BME280;15572;48.810;9.148;2023-07-31T22:45:44;97193.09;;;17.84;100.00
28312;BME280;15572;48.810;9.148;2023-07-31T22:50:40;97190.06;;;17.85;100.00
28312;BME280;15572;48.810;9.148;2023-07-31T22:55:37;97176.69;;;17.89;100.00
28312;BME280;15572;48.810;9.148;2023-07-31T23:00:35;97172.56;;;17.91;100.00
28312;BME280;15572;48.810;9.148;2023-07-31T23:05:31;97154.25;;;17.97;100.00
28312;BME280;15572;48.810;9.148;2023-07-31T23:10:28;97152.91;;;17.99;100.00
28312;BME280;15572;48.810;9.148;2023-07-31T23:15:24;97158.09;;;18.01;100.00
28312;BME280;15572;48.810;9.148;2023-07-31T23:20:22;97149.13;;;18.11;100.00
28312;BME280;15572;48.810;9.148;2023-07-31T23:25:18;97167.16;;;18.12;100.00
28312;BME280;15572;48.810;9.148;2023-07-31T23:30:15;97175.94;;;18.14;100.00
28312;BME280;15572;48.810;9.148;2023-07-31T23:35:11;97176.22;;;18.12;100.00
28312;BME280;15572;48.810;9.148;2023-07-31T23:40:10;97166.38;;;18.16;100.00
28312;BME280;15572;48.810;9.148;2023-07-31T23:45:08;97146.38;;;18.11;100.00
28312;BME280;15572;48.810;9.148;2023-07-31T23:50:06;97143.63;;;18.05;100.00
28312;BME280;15572;48.810;9.148;2023-07-31T23:55:04;97133.44;;;18.01;100.00
